createdAt,value
2018-02-25T00:00:05.506Z,103012.30
2018-02-25T00:02:33.041Z,103016.02
2018-02-25T00:05:00.567Z,103009.51
2018-02-25T00:07:28.083Z,103007.03
2018-02-25T00:09:55.618Z,103009.12
2018-02-25T00:12:23.130Z,103007.39
2018-02-25T00:14:50.665Z,102999.15
2018-02-25T00:17:18.191Z,103000.48
2018-02-25T00:19:45.719Z,103003.64
2018-02-25T00:22:30.018Z,103002.75
2018-02-25T00:24:57.553Z,103002.66
2018-02-25T00:27:25.092Z,103005.14
2018-02-25T00:29:52.604Z,103005.02
2018-02-25T00:32:20.126Z,102999.83
2018-02-25T00:34:47.656Z,102996.21
2018-02-25T00:37:15.178Z,102995.09
2018-02-25T00:39:42.713Z,103000.25
2018-02-25T00:42:10.230Z,102999.99
2018-02-25T00:44:37.744Z,102997.41
2018-02-25T00:47:05.264Z,103004.42
2018-02-25T00:49:32.789Z,103004.48
2018-02-25T00:52:00.304Z,102998.05
2018-02-25T00:54:27.825Z,102997.86
2018-02-25T00:56:55.340Z,102994.54
2018-02-25T00:59:22.885Z,102988.45
2018-02-25T01:01:50.423Z,103000.19
2018-02-25T01:04:17.935Z,102998.50
2018-02-25T01:06:45.470Z,102995.63
2018-02-25T01:09:12.982Z,102989.59
2018-02-25T01:11:40.507Z,102985.17
2018-02-25T01:14:08.046Z,102989.45
2018-02-25T01:16:35.577Z,102990.61
2018-02-25T01:19:03.089Z,102986.66
2018-02-25T01:21:30.617Z,102986.02
2018-02-25T01:23:58.149Z,102987.34
2018-02-25T01:26:25.685Z,102975.15
2018-02-25T01:28:53.209Z,102977.99
2018-02-25T01:31:20.740Z,102978.17
2018-02-25T01:33:48.287Z,102982.58
2018-02-25T01:36:15.807Z,102970.31
2018-02-25T01:38:43.372Z,102973.84
2018-02-25T01:41:10.878Z,102977.95
2018-02-25T01:43:38.397Z,102979.64
2018-02-25T01:46:05.926Z,102980.80
2018-02-25T01:48:33.447Z,102987.14
2018-02-25T01:51:05.758Z,102980.17
2018-02-25T01:53:33.276Z,102983.53
2018-02-25T01:56:00.814Z,102982.27
2018-02-25T01:58:28.352Z,102990.67
2018-02-25T02:00:55.884Z,102984.92
2018-02-25T02:03:23.410Z,102980.92
2018-02-25T02:05:50.919Z,102977.59
2018-02-25T02:08:18.449Z,102980.88
2018-02-25T02:10:45.981Z,102980.33
2018-02-25T02:13:13.493Z,102979.24
2018-02-25T02:15:41.015Z,102981.52
2018-02-25T02:18:08.525Z,102982.60
2018-02-25T02:20:36.054Z,102978.56
2018-02-25T02:23:03.556Z,102976.36
2018-02-25T02:25:31.069Z,102975.84
2018-02-25T02:27:58.581Z,102976.70
2018-02-25T02:30:26.126Z,102984.66
2018-02-25T02:32:53.663Z,102978.08
2018-02-25T02:35:21.172Z,102982.22
2018-02-25T02:37:48.681Z,102990.88
2018-02-25T02:40:16.191Z,102994.38
2018-02-25T02:42:43.714Z,102992.56
2018-02-25T02:45:11.249Z,103002.78
2018-02-25T02:47:38.766Z,102986.56
2018-02-25T02:50:06.277Z,102995.63
2018-02-25T02:52:33.810Z,102991.98
2018-02-25T02:55:01.330Z,102999.80
2018-02-25T02:57:28.855Z,102985.52
2018-02-25T02:59:56.372Z,102987.05
2018-02-25T03:02:23.906Z,102998.02
2018-02-25T03:04:51.424Z,102995.19
2018-02-25T03:07:18.937Z,102995.25
2018-02-25T03:09:46.458Z,102998.53
2018-02-25T03:12:13.983Z,103000.13
2018-02-25T03:14:41.501Z,103003.08
2018-02-25T03:17:09.023Z,102998.39
2018-02-25T03:19:36.561Z,102999.11
2018-02-25T03:22:04.074Z,103004.16
2018-02-25T03:24:31.602Z,102994.72
2018-02-25T03:26:59.275Z,102999.98
2018-02-25T03:29:26.799Z,103000.73
2018-02-25T03:31:54.321Z,102998.38
2018-02-25T03:34:21.856Z,102996.52
2018-02-25T03:36:49.395Z,103000.83
2018-02-25T03:39:16.933Z,102997.98
2018-02-25T03:41:44.453Z,103000.54
2018-02-25T03:44:11.975Z,103001.11
2018-02-25T03:46:39.500Z,102995.92
2018-02-25T03:49:07.017Z,102996.50
2018-02-25T03:51:34.534Z,102994.92
2018-02-25T03:54:02.058Z,102982.98
2018-02-25T03:56:29.577Z,102992.23
2018-02-25T03:58:57.104Z,102988.27
2018-02-25T04:01:24.624Z,102991.55
2018-02-25T04:03:52.148Z,102991.63
2018-02-25T04:06:19.681Z,102986.11
2018-02-25T04:08:47.208Z,102989.34
2018-02-25T04:11:14.730Z,102982.87
2018-02-25T04:13:42.268Z,102984.61
2018-02-25T04:16:09.802Z,102985.85
2018-02-25T04:18:37.313Z,102987.91
2018-02-25T04:21:04.837Z,102988.82
2018-02-25T04:23:32.352Z,102988.38
2018-02-25T04:25:59.891Z,102990.59
2018-02-25T04:28:27.413Z,102999.66
2018-02-25T04:30:54.941Z,102990.62
2018-02-25T04:33:22.458Z,102993.70
2018-02-25T04:35:49.998Z,102986.59
2018-02-25T04:38:17.525Z,102983.75
2018-02-25T04:40:45.045Z,102982.43
2018-02-25T04:43:12.567Z,102975.45
2018-02-25T04:45:40.082Z,102980.48
2018-02-25T04:48:07.602Z,102983.34
2018-02-25T04:50:35.143Z,102977.78
2018-02-25T04:53:02.659Z,102979.30
2018-02-25T04:55:30.190Z,102983.38
2018-02-25T04:57:57.737Z,102985.59
2018-02-25T05:00:25.255Z,102991.30
2018-02-25T05:02:52.766Z,102980.92
2018-02-25T05:05:20.289Z,102985.08
2018-02-25T05:07:47.818Z,102974.28
2018-02-25T05:10:15.344Z,102984.88
2018-02-25T05:12:42.875Z,102980.98
2018-02-25T05:15:10.406Z,102980.16
2018-02-25T05:17:37.928Z,102980.98
2018-02-25T05:20:05.452Z,102980.06
2018-02-25T05:22:32.981Z,102973.20
2018-02-25T05:25:00.510Z,102977.66
2018-02-25T05:27:28.052Z,102977.63
2018-02-25T05:29:55.559Z,102975.70
2018-02-25T05:32:23.090Z,102983.89
2018-02-25T05:34:50.617Z,102988.47
2018-02-25T05:37:18.143Z,102987.73
2018-02-25T05:39:45.667Z,102989.48
2018-02-25T05:42:13.191Z,102996.40
2018-02-25T05:44:40.718Z,102993.79
2018-02-25T05:47:08.237Z,102999.85
2018-02-25T05:49:35.782Z,102997.05
2018-02-25T05:52:03.293Z,102993.27
2018-02-25T05:54:30.813Z,102999.61
2018-02-25T05:56:58.341Z,103001.42
2018-02-25T05:59:25.870Z,103009.91
2018-02-25T06:01:53.392Z,103001.75
2018-02-25T06:04:20.919Z,103006.64
2018-02-25T06:06:48.451Z,103011.41
2018-02-25T06:09:15.975Z,103017.93
2018-02-25T06:11:43.498Z,103005.45
2018-02-25T06:14:11.017Z,103002.77
2018-02-25T06:16:38.536Z,103007.50
2018-02-25T06:19:06.078Z,103019.88
2018-02-25T06:21:33.626Z,103012.02
2018-02-25T06:24:01.165Z,103021.56
2018-02-25T06:26:28.686Z,103019.04
2018-02-25T06:28:56.228Z,103020.39
2018-02-25T06:31:23.762Z,103022.33
2018-02-25T06:33:51.281Z,103014.38
2018-02-25T06:36:18.804Z,103011.23
2018-02-25T06:38:46.320Z,103016.79
2018-02-25T06:41:13.845Z,103014.87
2018-02-25T06:43:41.381Z,103012.42
2018-02-25T06:46:08.906Z,103012.67
2018-02-25T06:48:36.421Z,103017.56
2018-02-25T06:51:03.968Z,103010.80
2018-02-25T06:53:31.495Z,103015.14
2018-02-25T06:55:59.009Z,103009.27
2018-02-25T06:58:26.546Z,103013.48
2018-02-25T07:00:54.073Z,103015.37
2018-02-25T07:03:21.590Z,103014.98
2018-02-25T07:05:49.111Z,103012.05
2018-02-25T07:08:16.638Z,103014.84
2018-02-25T07:10:44.178Z,103021.96
2018-02-25T07:13:11.700Z,103023.80
2018-02-25T07:15:39.258Z,103020.23
2018-02-25T07:18:06.773Z,103020.73
2018-02-25T07:20:34.297Z,103022.80
2018-02-25T07:23:01.823Z,103022.41
2018-02-25T07:25:29.339Z,103018.47
2018-02-25T07:27:56.861Z,103014.18
2018-02-25T07:30:24.386Z,103017.97
2018-02-25T07:32:51.912Z,103027.90
2018-02-25T07:35:19.430Z,103015.55
2018-02-25T07:37:46.957Z,103008.78
2018-02-25T07:40:14.476Z,103009.02
2018-02-25T07:42:42.099Z,103004.88
2018-02-25T07:45:09.615Z,103004.81
2018-02-25T07:47:37.143Z,103005.25
2018-02-25T07:50:04.677Z,103006.94
2018-02-25T07:52:32.213Z,103004.30
2018-02-25T07:54:59.745Z,103005.23
2018-02-25T07:57:27.270Z,103010.82
2018-02-25T07:59:54.789Z,103005.97
2018-02-25T08:02:22.309Z,103003.79
2018-02-25T08:04:49.832Z,102998.34
2018-02-25T08:07:17.397Z,103000.16
2018-02-25T08:09:44.918Z,102995.36
2018-02-25T08:12:12.487Z,102999.81
2018-02-25T08:14:40.005Z,102995.12
2018-02-25T08:17:07.518Z,102996.72
2018-02-25T08:19:35.045Z,102998.83
2018-02-25T08:22:02.558Z,102992.97
2018-02-25T08:24:30.082Z,102990.94
2018-02-25T08:26:57.975Z,102990.96
2018-02-25T08:29:25.476Z,102986.33
2018-02-25T08:31:52.990Z,102985.67
2018-02-25T08:34:20.511Z,102993.15
2018-02-25T08:36:48.014Z,102986.56
2018-02-25T08:39:15.529Z,102990.29
2018-02-25T08:41:43.053Z,102990.94
2018-02-25T08:44:10.558Z,102991.12
2018-02-25T08:46:38.074Z,102990.92
2018-02-25T08:49:05.600Z,102974.05
2018-02-25T08:51:33.104Z,102986.56
2018-02-25T08:54:00.624Z,102979.94
2018-02-25T08:56:28.142Z,102982.11
2018-02-25T08:58:55.657Z,102969.94
2018-02-25T09:01:23.170Z,102979.64
2018-02-25T09:03:50.689Z,102977.11
2018-02-25T09:06:18.218Z,102967.08
2018-02-25T09:08:45.752Z,102970.62
2018-02-25T09:11:13.280Z,102974.66
2018-02-25T09:13:40.795Z,102972.64
2018-02-25T09:16:08.337Z,102974.11
2018-02-25T09:18:35.889Z,102976.58
2018-02-25T09:21:03.445Z,102976.30
2018-02-25T09:23:30.962Z,102970.30
2018-02-25T09:25:58.491Z,102970.15
2018-02-25T09:28:26.933Z,102971.54
2018-02-25T09:30:56.387Z,102951.07
2018-02-25T09:33:23.905Z,102955.17
2018-02-25T09:35:51.435Z,102941.25
2018-02-25T09:38:19.366Z,102926.55
2018-02-25T09:40:47.215Z,102938.87
2018-02-25T09:43:14.729Z,102932.34
2018-02-25T09:45:42.244Z,102923.91
2018-02-25T09:48:09.766Z,102927.46
2018-02-25T09:50:37.289Z,102922.43
2018-02-25T09:53:05.066Z,102918.05
2018-02-25T09:55:32.592Z,102920.38
2018-02-25T09:58:00.105Z,102912.75
2018-02-25T10:00:27.613Z,102911.86
2018-02-25T10:02:55.126Z,102907.84
2018-02-25T10:05:22.671Z,102892.90
2018-02-25T10:07:50.188Z,102894.30
2018-02-25T10:10:17.720Z,102880.23
2018-02-25T10:12:46.020Z,102882.83
2018-02-25T10:15:13.549Z,102889.94
2018-02-25T10:17:41.077Z,102899.83
2018-02-25T10:20:08.602Z,102888.37
2018-02-25T10:22:36.129Z,102888.91
2018-02-25T10:25:03.691Z,102887.48
2018-02-25T10:27:31.214Z,102886.48
2018-02-25T10:29:58.737Z,102886.05
2018-02-25T10:32:26.268Z,102905.61
2018-02-25T10:34:53.862Z,102890.82
2018-02-25T10:37:21.403Z,102886.95
2018-02-25T10:39:48.928Z,102895.02
2018-02-25T10:42:16.461Z,102898.77
2018-02-25T10:44:44.004Z,102892.44
2018-02-25T10:47:11.522Z,102899.52
2018-02-25T10:49:39.047Z,102893.08
2018-02-25T10:52:07.224Z,102886.43
2018-02-25T10:54:34.732Z,102895.73
2018-02-25T10:57:02.249Z,102877.45
2018-02-25T10:59:30.673Z,102879.20
2018-02-25T11:01:58.182Z,102865.91
2018-02-25T11:04:25.714Z,102858.77
2018-02-25T11:06:53.231Z,102867.13
2018-02-25T11:09:20.754Z,102857.56
2018-02-25T11:11:48.273Z,102856.48
2018-02-25T11:14:15.792Z,102866.67
2018-02-25T11:16:44.698Z,102869.42
2018-02-25T11:19:13.137Z,102856.65
2018-02-25T11:21:40.655Z,102848.34
2018-02-25T11:24:08.216Z,102846.19
2018-02-25T11:26:35.738Z,102844.03
2018-02-25T11:29:04.076Z,102846.45
2018-02-25T11:31:31.702Z,102841.58
2018-02-25T11:33:59.160Z,102843.36
2018-02-25T11:36:26.919Z,102834.67
2018-02-25T11:38:54.481Z,102828.23
2018-02-25T11:41:22.044Z,102833.31
2018-02-25T11:43:49.567Z,102831.77
2018-02-25T11:46:17.091Z,102831.72
2018-02-25T11:48:44.612Z,102835.88
2018-02-25T11:51:12.144Z,102820.72
2018-02-25T11:53:39.669Z,102820.55
2018-02-25T11:56:07.191Z,102812.05
2018-02-25T11:58:34.727Z,102818.64
2018-02-25T12:01:02.259Z,102815.88
2018-02-25T12:03:29.788Z,102820.18
2018-02-25T12:05:57.299Z,102825.88
2018-02-25T12:08:24.822Z,102821.47
2018-02-25T12:10:52.345Z,102816.34
2018-02-25T12:13:19.883Z,102818.55
2018-02-25T12:15:47.404Z,102812.83
2018-02-25T12:18:14.927Z,102805.97
2018-02-25T12:20:42.438Z,102803.27
2018-02-25T12:23:09.961Z,102799.37
2018-02-25T12:25:37.483Z,102801.16
2018-02-25T12:28:05.028Z,102800.26
2018-02-25T12:30:32.541Z,102803.37
2018-02-25T12:33:00.051Z,102795.02
2018-02-25T12:35:27.578Z,102796.18
2018-02-25T12:37:55.125Z,102795.50
2018-02-25T12:40:22.639Z,102801.25
2018-02-25T12:42:50.154Z,102799.48
2018-02-25T12:45:17.676Z,102795.81
2018-02-25T12:47:45.200Z,102782.55
2018-02-25T12:50:12.733Z,102778.27
2018-02-25T12:52:40.264Z,102781.17
2018-02-25T12:55:07.786Z,102770.66
2018-02-25T12:57:35.315Z,102772.58
2018-02-25T13:00:02.841Z,102762.50
2018-02-25T13:02:30.353Z,102768.32
2018-02-25T13:04:57.877Z,102766.72
2018-02-25T13:07:25.402Z,102762.80
2018-02-25T13:09:52.916Z,102764.66
2018-02-25T13:12:20.445Z,102753.83
2018-02-25T13:14:47.975Z,102754.26
2018-02-25T13:17:15.496Z,102755.34
2018-02-25T13:19:43.028Z,102750.65
2018-02-25T13:22:10.559Z,102752.73
2018-02-25T13:24:38.069Z,102753.61
2018-02-25T13:27:05.587Z,102742.77
2018-02-25T13:29:33.115Z,102742.40
2018-02-25T13:32:00.645Z,102733.52
2018-02-25T13:34:28.185Z,102739.99
2018-02-25T13:36:55.712Z,102745.11
2018-02-25T13:39:23.241Z,102753.52
2018-02-25T13:41:50.771Z,102740.35
2018-02-25T13:44:18.311Z,102740.11
2018-02-25T13:46:45.821Z,102727.39
2018-02-25T13:49:13.351Z,102733.70
2018-02-25T13:51:40.867Z,102730.53
2018-02-25T13:54:08.394Z,102720.77
2018-02-25T13:56:35.915Z,102729.83
2018-02-25T13:59:03.438Z,102728.00
2018-02-25T14:01:30.951Z,102730.39
2018-02-25T14:03:58.490Z,102715.66
2018-02-25T14:06:26.005Z,102718.56
2018-02-25T14:08:53.523Z,102725.13
2018-02-25T14:11:21.037Z,102722.86
2018-02-25T14:13:48.567Z,102719.66
2018-02-25T14:16:16.100Z,102712.92
2018-02-25T14:18:43.686Z,102711.31
2018-02-25T14:21:11.206Z,102718.89
2018-02-25T14:23:38.729Z,102714.34
2018-02-25T14:26:06.245Z,102714.88
2018-02-25T14:28:33.785Z,102717.39
2018-02-25T14:31:01.304Z,102714.52
2018-02-25T14:33:28.838Z,102704.63
2018-02-25T14:35:56.365Z,102703.41
2018-02-25T14:38:23.882Z,102699.87
2018-02-25T14:40:51.400Z,102697.67
2018-02-25T14:43:18.921Z,102696.59
2018-02-25T14:45:46.438Z,102694.53
2018-02-25T14:48:13.960Z,102689.74
2018-02-25T14:50:41.478Z,102697.30
2018-02-25T14:53:08.998Z,102698.27
2018-02-25T14:55:36.518Z,102697.95
2018-02-25T14:58:04.035Z,102694.55
2018-02-25T15:00:31.555Z,102697.84
2018-02-25T15:02:59.079Z,102694.45
2018-02-25T15:05:26.611Z,102684.40
2018-02-25T15:07:54.131Z,102677.89
2018-02-25T15:10:21.651Z,102679.00
2018-02-25T15:12:49.166Z,102686.59
2018-02-25T15:15:16.694Z,102678.66
2018-02-25T15:17:44.220Z,102679.80
2018-02-25T15:20:11.732Z,102670.58
2018-02-25T15:22:39.260Z,102686.55
2018-02-25T15:25:06.837Z,102678.79
2018-02-25T15:27:34.349Z,102678.97
2018-02-25T15:30:01.855Z,102669.71
2018-02-25T15:32:29.370Z,102673.87
2018-02-25T15:34:56.901Z,102669.47
2018-02-25T15:37:24.426Z,102672.85
2018-02-25T15:39:51.942Z,102680.58
2018-02-25T15:42:19.474Z,102678.97
2018-02-25T15:44:46.988Z,102680.78
2018-02-25T15:47:14.511Z,102686.75
2018-02-25T15:49:42.029Z,102682.52
2018-02-25T15:52:09.605Z,102686.30
2018-02-25T15:54:37.114Z,102677.92
2018-02-25T15:57:04.629Z,102680.98
2018-02-25T15:59:32.146Z,102679.89
2018-02-25T16:01:59.693Z,102685.77
2018-02-25T16:04:27.221Z,102684.48
2018-02-25T16:06:54.730Z,102678.41
2018-02-25T16:09:22.325Z,102674.59
2018-02-25T16:11:49.861Z,102680.14
2018-02-25T16:14:17.374Z,102685.34
2018-02-25T16:16:44.909Z,102696.08
2018-02-25T16:19:12.425Z,102691.92
2018-02-25T16:21:39.963Z,102697.44
2018-02-25T16:24:07.472Z,102698.38
2018-02-25T16:26:35.001Z,102697.21
2018-02-25T16:29:02.574Z,102699.46
2018-02-25T16:31:30.119Z,102700.09
2018-02-25T16:33:57.641Z,102704.16
2018-02-25T16:36:25.149Z,102698.38
2018-02-25T16:38:52.693Z,102700.55
2018-02-25T16:41:20.236Z,102705.89
2018-02-25T16:43:47.770Z,102696.61
2018-02-25T16:46:15.293Z,102707.55
2018-02-25T16:48:42.801Z,102703.38
2018-02-25T16:51:10.328Z,102700.35
2018-02-25T16:53:37.860Z,102703.88
2018-02-25T16:56:05.393Z,102703.12
2018-02-25T16:58:32.906Z,102705.27
2018-02-25T17:01:00.434Z,102702.56
2018-02-25T17:03:27.992Z,102709.36
2018-02-25T17:05:55.504Z,102704.55
2018-02-25T17:08:23.026Z,102710.28
2018-02-25T17:10:50.548Z,102712.35
2018-02-25T17:13:18.052Z,102707.22
2018-02-25T17:15:45.582Z,102711.44
2018-02-25T17:18:13.103Z,102708.55
2018-02-25T17:20:40.604Z,102708.78
2018-02-25T17:23:08.123Z,102714.59
2018-02-25T17:25:35.650Z,102710.34
2018-02-25T17:28:03.180Z,102722.30
2018-02-25T17:30:30.714Z,102713.33
2018-02-25T17:32:58.233Z,102715.80
2018-02-25T17:35:25.750Z,102718.31
2018-02-25T17:37:53.267Z,102719.38
2018-02-25T17:40:20.782Z,102721.13
2018-02-25T17:42:48.310Z,102716.00
2018-02-25T17:45:15.844Z,102726.55
2018-02-25T17:47:43.402Z,102719.80
2018-02-25T17:50:10.913Z,102721.97
2018-02-25T17:52:38.450Z,102721.70
2018-02-25T17:55:05.990Z,102715.25
2018-02-25T17:57:33.517Z,102713.19
2018-02-25T18:00:01.034Z,102717.22
2018-02-25T18:02:29.898Z,102717.22
2018-02-25T18:04:57.423Z,102717.19
2018-02-25T18:07:25.909Z,102727.23
2018-02-25T18:09:53.444Z,102716.04
2018-02-25T18:12:21.795Z,102722.58
2018-02-25T18:14:49.333Z,102720.63
2018-02-25T18:17:17.170Z,102719.71
2018-02-25T18:19:44.751Z,102715.77
2018-02-25T18:22:12.321Z,102723.86
2018-02-25T18:24:39.849Z,102718.85
2018-02-25T18:27:07.386Z,102724.73
2018-02-25T18:29:34.915Z,102723.79
2018-02-25T18:32:02.446Z,102723.12
2018-02-25T18:34:29.961Z,102723.48
2018-02-25T18:36:57.642Z,102722.06
2018-02-25T18:39:25.169Z,102724.53
2018-02-25T18:41:52.692Z,102726.52
2018-02-25T18:44:20.204Z,102731.23
2018-02-25T18:46:47.720Z,102736.56
2018-02-25T18:49:16.733Z,102733.57
2018-02-25T18:51:44.319Z,102733.23
2018-02-25T18:54:11.862Z,102741.17
2018-02-25T18:56:39.372Z,102738.68
2018-02-25T18:59:06.897Z,102736.70
2018-02-25T19:01:34.424Z,102738.55
2018-02-25T19:04:01.963Z,102736.77
2018-02-25T19:06:29.620Z,102742.78
2018-02-25T19:08:57.162Z,102748.14
2018-02-25T19:11:24.766Z,102747.30
2018-02-25T19:13:52.309Z,102745.47
2018-02-25T19:16:19.869Z,102740.86
2018-02-25T19:18:47.457Z,102737.91
2018-02-25T19:21:15.009Z,102739.57
2018-02-25T19:23:42.591Z,102741.13
2018-02-25T19:26:10.145Z,102744.02
2018-02-25T19:28:37.664Z,102746.64
2018-02-25T19:31:05.210Z,102754.07
2018-02-25T19:33:32.776Z,102748.82
2018-02-25T19:36:05.930Z,102748.61
2018-02-25T19:38:39.148Z,102748.52
2018-02-25T19:41:12.332Z,102744.61
2018-02-25T19:43:39.904Z,102749.75
2018-02-25T19:46:07.467Z,102750.84
2018-02-25T19:48:35.297Z,102752.80
2018-02-25T19:51:02.843Z,102749.29
2018-02-25T19:53:30.379Z,102750.02
2018-02-25T19:55:57.949Z,102749.06
2018-02-25T19:58:25.484Z,102748.20
2018-02-25T20:00:53.119Z,102750.38
2018-02-25T20:03:20.641Z,102745.88
2018-02-25T20:05:48.163Z,102748.45
2018-02-25T20:08:15.681Z,102747.67
2018-02-25T20:10:44.631Z,102752.52
2018-02-25T20:13:12.210Z,102746.64
2018-02-25T20:15:39.737Z,102753.27
2018-02-25T20:18:07.296Z,102749.75
2018-02-25T20:20:34.901Z,102752.50
2018-02-25T20:23:02.430Z,102755.16
2018-02-25T20:25:29.966Z,102755.73
2018-02-25T20:27:57.516Z,102755.39
2018-02-25T20:30:25.073Z,102751.92
2018-02-25T20:32:52.593Z,102747.52
2018-02-25T20:35:20.107Z,102750.28
2018-02-25T20:37:47.702Z,102749.58
2018-02-25T20:40:15.236Z,102744.32
2018-02-25T20:42:42.806Z,102744.66
2018-02-25T20:45:10.354Z,102746.48
2018-02-25T20:47:37.913Z,102739.20
2018-02-25T20:50:05.510Z,102745.89
2018-02-25T20:52:33.027Z,102756.03
2018-02-25T20:55:00.597Z,102748.86
2018-02-25T20:57:28.138Z,102744.08
2018-02-25T20:59:56.474Z,102742.85
2018-02-25T21:02:24.018Z,102743.88
2018-02-25T21:04:51.540Z,102736.62
2018-02-25T21:07:19.058Z,102748.58
2018-02-25T21:09:46.611Z,102745.42
2018-02-25T21:12:14.147Z,102743.32
2018-02-25T21:14:41.700Z,102749.69
2018-02-25T21:17:09.236Z,102748.94
2018-02-25T21:19:36.750Z,102745.86
2018-02-25T21:22:04.305Z,102761.95
2018-02-25T21:24:31.833Z,102757.92
2018-02-25T21:26:59.354Z,102756.36
2018-02-25T21:29:26.879Z,102759.03
2018-02-25T21:31:54.410Z,102758.44
2018-02-25T21:34:21.960Z,102760.67
2018-02-25T21:36:49.519Z,102754.61
2018-02-25T21:39:17.061Z,102760.00
2018-02-25T21:41:44.584Z,102760.35
2018-02-25T21:44:12.111Z,102766.61
2018-02-25T21:46:39.639Z,102770.09
2018-02-25T21:49:07.235Z,102762.83
2018-02-25T21:51:34.764Z,102765.92
2018-02-25T21:54:02.277Z,102771.66
2018-02-25T21:59:39.861Z,102767.23
2018-02-25T22:02:12.918Z,102763.66
2018-02-25T22:04:40.443Z,102769.06
2018-02-25T22:07:07.967Z,102770.57
2018-02-25T22:09:35.496Z,102764.55
2018-02-25T22:12:03.061Z,102764.25
2018-02-25T22:14:30.585Z,102759.45
2018-02-25T22:16:58.103Z,102757.61
2018-02-25T22:19:25.636Z,102754.06
2018-02-25T22:21:53.158Z,102744.88
2018-02-25T22:24:20.770Z,102747.83
2018-02-25T22:26:48.287Z,102744.52
2018-02-25T22:29:15.818Z,102751.81
2018-02-25T22:31:43.334Z,102750.00
2018-02-25T22:34:10.860Z,102748.08
2018-02-25T22:36:38.378Z,102748.92
2018-02-25T22:39:05.910Z,102758.66
2018-02-25T22:41:33.433Z,102753.92
2018-02-25T22:44:01.018Z,102752.43
2018-02-25T22:46:28.546Z,102755.94
2018-02-25T22:48:56.089Z,102758.63
2018-02-25T22:51:23.610Z,102751.64
2018-02-25T22:53:51.126Z,102762.72
2018-02-25T22:56:18.642Z,102763.91
2018-02-25T22:58:46.160Z,102759.20
2018-02-25T23:01:13.688Z,102761.59
2018-02-25T23:03:41.204Z,102765.79
2018-02-25T23:06:08.718Z,102758.09
2018-02-25T23:08:36.247Z,102767.73
2018-02-25T23:11:03.774Z,102754.86
2018-02-25T23:13:31.301Z,102764.73
2018-02-25T23:15:58.826Z,102759.23
2018-02-25T23:18:26.352Z,102761.54
2018-02-25T23:20:53.884Z,102771.22
2018-02-25T23:23:21.418Z,102766.26
2018-02-25T23:25:48.933Z,102773.87
2018-02-25T23:28:16.451Z,102768.59
2018-02-25T23:30:43.981Z,102772.23
2018-02-25T23:33:11.513Z,102767.38
2018-02-25T23:35:39.031Z,102773.34
2018-02-25T23:38:06.555Z,102762.42
2018-02-25T23:40:34.095Z,102772.45
2018-02-25T23:43:01.613Z,102769.33
2018-02-25T23:45:29.141Z,102765.34
2018-02-25T23:47:56.667Z,102767.28
2018-02-25T23:50:24.185Z,102761.00
2018-02-25T23:52:51.717Z,102760.48
2018-02-25T23:55:19.245Z,102760.83
2018-02-25T23:57:46.801Z,102756.94
